sensor_id;sensor_type;location;lat;lon;timestamp;temperature;humidity
20288;DHT22;10303;51.960;8.372;2023-12-29T00:01:19;13.40;99.90
20288;DHT22;10303;51.960;8.372;2023-12-29T00:03:45;13.40;99.90
20288;DHT22;10303;51.960;8.372;2023-12-29T00:06:10;13.50;99.90
20288;DHT22;10303;51.960;8.372;2023-12-29T00:08:37;13.50;99.90
20288;DHT22;10303;51.960;8.372;2023-12-29T00:11:03;13.40;99.90
20288;DHT22;10303;51.960;8.372;2023-12-29T00:13:29;13.50;99.90
20288;DHT22;10303;51.960;8.372;2023-12-29T00:15:55;13.40;99.90
20288;DHT22;10303;51.960;8.372;2023-12-29T00:18:21;13.50;99.90
20288;DHT22;10303;51.960;8.372;2023-12-29T00:20:49;13.40;99.90
20288;DHT22;10303;51.960;8.372;2023-12-29T00:23:15;13.50;99.90
20288;DHT22;10303;51.960;8.372;2023-12-29T00:25:40;13.60;99.90
20288;DHT22;10303;51.960;8.372;2023-12-29T00:28:06;13.60;99.90
20288;DHT22;10303;51.960;8.372;2023-12-29T00:30:32;13.70;99.90
20288;DHT22;10303;51.960;8.372;2023-12-29T00:32:58;13.60;99.90
20288;DHT22;10303;51.960;8.372;2023-12-29T00:35:24;13.60;99.90
20288;DHT22;10303;51.960;8.372;2023-12-29T00:37:51;13.60;99.90
20288;DHT22;10303;51.960;8.372;2023-12-29T00:40:18;13.50;99.90
20288;DHT22;10303;51.960;8.372;2023-12-29T00:42:44;13.60;99.90
20288;DHT22;10303;51.960;8.372;2023-12-29T00:45:10;13.50;99.90
20288;DHT22;10303;51.960;8.372;2023-12-29T00:47:36;13.60;99.90
20288;DHT22;10303;51.960;8.372;2023-12-29T00:50:03;13.60;99.90
20288;DHT22;10303;51.960;8.372;2023-12-29T00:52:29;13.60;99.90
20288;DHT22;10303;51.960;8.372;2023-12-29T00:54:55;13.60;99.90
20288;DHT22;10303;51.960;8.372;2023-12-29T00:57:21;13.60;99.90
20288;DHT22;10303;51.960;8.372;2023-12-29T00:59:47;13.60;99.90
20288;DHT22;10303;51.960;8.372;2023-12-29T01:02:13;13.60;99.90
20288;DHT22;10303;51.960;8.372;2023-12-29T01:04:39;13.60;99.90
20288;DHT22;10303;51.960;8.372;2023-12-29T01:07:05;13.50;99.90
20288;DHT22;10303;51.960;8.372;2023-12-29T01:09:31;13.50;99.90
20288;DHT22;10303;51.960;8.372;2023-12-29T01:11:57;13.60;99.90
20288;DHT22;10303;51.960;8.372;2023-12-29T01:14:23;13.60;99.90
20288;DHT22;10303;51.960;8.372;2023-12-29T01:16:48;13.70;99.90
20288;DHT22;10303;51.960;8.372;2023-12-29T01:19:14;13.60;99.90
20288;DHT22;10303;51.960;8.372;2023-12-29T01:21:40;13.50;99.90
20288;DHT22;10303;51.960;8.372;2023-12-29T01:24:06;13.40;99.90
20288;DHT22;10303;51.960;8.372;2023-12-29T01:26:39;13.40;99.90
20288;DHT22;10303;51.960;8.372;2023-12-29T01:29:05;13.50;99.90
20288;DHT22;10303;51.960;8.372;2023-12-29T01:31:32;13.60;99.90
20288;DHT22;10303;51.960;8.372;2023-12-29T01:33:58;13.50;99.90
20288;DHT22;10303;51.960;8.372;2023-12-29T01:36:24;13.60;99.90
20288;DHT22;10303;51.960;8.372;2023-12-29T01:38:50;13.60;99.90
20288;DHT22;10303;51.960;8.372;2023-12-29T01:41:19;13.50;99.90
20288;DHT22;10303;51.960;8.372;2023-12-29T01:44:19;13.50;99.90
20288;DHT22;10303;51.960;8.372;2023-12-29T01:46:54;13.60;99.90
20288;DHT22;10303;51.960;8.372;2023-12-29T01:49:22;13.60;99.90
20288;DHT22;10303;51.960;8.372;2023-12-29T01:51:54;13.70;99.90
20288;DHT22;10303;51.960;8.372;2023-12-29T01:54:25;13.60;99.90
20288;DHT22;10303;51.960;8.372;2023-12-29T01:56:55;13.60;99.90
20288;DHT22;10303;51.960;8.372;2023-12-29T01:59:25;13.50;99.90
20288;DHT22;10303;51.960;8.372;2023-12-29T02:01:53;13.50;99.90
20288;DHT22;10303;51.960;8.372;2023-12-29T02:04:26;13.60;99.90
20288;DHT22;10303;51.960;8.372;2023-12-29T02:06:53;13.60;99.90
20288;DHT22;10303;51.960;8.372;2023-12-29T02:09:20;13.60;99.90
20288;DHT22;10303;51.960;8.372;2023-12-29T02:11:47;13.70;99.90
20288;DHT22;10303;51.960;8.372;2023-12-29T02:14:15;13.70;99.90
20288;DHT22;10303;51.960;8.372;2023-12-29T02:17:18;13.80;99.90
20288;DHT22;10303;51.960;8.372;2023-12-29T02:19:47;13.80;99.90
20288;DHT22;10303;51.960;8.372;2023-12-29T02:22:15;13.80;99.90
20288;DHT22;10303;51.960;8.372;2023-12-29T02:24:46;13.90;99.90
20288;DHT22;10303;51.960;8.372;2023-12-29T02:33:21;13.80;99.90
20288;DHT22;10303;51.960;8.372;2023-12-29T02:35:52;13.80;99.90
20288;DHT22;10303;51.960;8.372;2023-12-29T02:38:22;13.50;99.90
20288;DHT22;10303;51.960;8.372;2023-12-29T02:40:49;13.20;99.90
20288;DHT22;10303;51.960;8.372;2023-12-29T02:43:15;13.40;99.90
20288;DHT22;10303;51.960;8.372;2023-12-29T02:45:41;13.40;99.90
20288;DHT22;10303;51.960;8.372;2023-12-29T02:48:07;13.50;99.90
20288;DHT22;10303;51.960;8.372;2023-12-29T02:50:33;13.40;99.90
20288;DHT22;10303;51.960;8.372;2023-12-29T02:52:59;13.50;99.90
20288;DHT22;10303;51.960;8.372;2023-12-29T02:55:25;13.50;99.90
20288;DHT22;10303;51.960;8.372;2023-12-29T02:57:51;13.50;99.90
20288;DHT22;10303;51.960;8.372;2023-12-29T03:00:17;13.50;99.90
20288;DHT22;10303;51.960;8.372;2023-12-29T03:02:43;13.40;99.90
20288;DHT22;10303;51.960;8.372;2023-12-29T03:05:09;13.40;99.90
20288;DHT22;10303;51.960;8.372;2023-12-29T03:07:36;13.40;99.90
20288;DHT22;10303;51.960;8.372;2023-12-29T03:10:02;13.20;99.90
20288;DHT22;10303;51.960;8.372;2023-12-29T03:12:28;13.20;99.90
20288;DHT22;10303;51.960;8.372;2023-12-29T03:14:56;13.00;99.90
20288;DHT22;10303;51.960;8.372;2023-12-29T03:17:22;13.00;99.90
20288;DHT22;10303;51.960;8.372;2023-12-29T03:19:47;13.00;99.90
20288;DHT22;10303;51.960;8.372;2023-12-29T03:22:13;13.00;99.90
20288;DHT22;10303;51.960;8.372;2023-12-29T03:24:42;13.00;99.90
20288;DHT22;10303;51.960;8.372;2023-12-29T03:27:09;13.10;99.90
20288;DHT22;10303;51.960;8.372;2023-12-29T03:29:35;13.00;99.90
20288;DHT22;10303;51.960;8.372;2023-12-29T03:32:01;12.90;99.90
20288;DHT22;10303;51.960;8.372;2023-12-29T03:34:27;12.70;99.90
20288;DHT22;10303;51.960;8.372;2023-12-29T03:36:53;12.80;99.90
20288;DHT22;10303;51.960;8.372;2023-12-29T03:39:19;12.90;99.90
20288;DHT22;10303;51.960;8.372;2023-12-29T03:41:45;12.80;99.90
20288;DHT22;10303;51.960;8.372;2023-12-29T03:44:12;12.80;99.90
20288;DHT22;10303;51.960;8.372;2023-12-29T03:46:38;12.80;99.90
20288;DHT22;10303;51.960;8.372;2023-12-29T03:49:04;12.80;99.90
20288;DHT22;10303;51.960;8.372;2023-12-29T03:51:30;12.80;99.90
20288;DHT22;10303;51.960;8.372;2023-12-29T03:53:56;12.80;99.90
20288;DHT22;10303;51.960;8.372;2023-12-29T03:56:24;12.80;99.90
20288;DHT22;10303;51.960;8.372;2023-12-29T03:58:50;12.80;99.90
20288;DHT22;10303;51.960;8.372;2023-12-29T04:01:16;12.70;99.90
20288;DHT22;10303;51.960;8.372;2023-12-29T04:03:43;12.70;99.90
20288;DHT22;10303;51.960;8.372;2023-12-29T04:06:10;12.60;99.90
20288;DHT22;10303;51.960;8.372;2023-12-29T04:08:37;12.70;99.90
20288;DHT22;10303;51.960;8.372;2023-12-29T04:11:04;12.70;99.90
20288;DHT22;10303;51.960;8.372;2023-12-29T04:13:31;12.60;99.90
20288;DHT22;10303;51.960;8.372;2023-12-29T04:15:57;12.60;99.90
20288;DHT22;10303;51.960;8.372;2023-12-29T04:18:24;12.60;99.90
20288;DHT22;10303;51.960;8.372;2023-12-29T04:20:50;12.60;99.90
20288;DHT22;10303;51.960;8.372;2023-12-29T04:23:16;12.60;99.90
20288;DHT22;10303;51.960;8.372;2023-12-29T04:25:42;12.60;99.90
20288;DHT22;10303;51.960;8.372;2023-12-29T04:28:08;12.40;99.90
20288;DHT22;10303;51.960;8.372;2023-12-29T04:30:35;12.50;99.90
20288;DHT22;10303;51.960;8.372;2023-12-29T04:33:01;12.50;99.90
20288;DHT22;10303;51.960;8.372;2023-12-29T04:35:27;12.40;99.90
20288;DHT22;10303;51.960;8.372;2023-12-29T04:37:53;12.40;99.90
20288;DHT22;10303;51.960;8.372;2023-12-29T04:40:18;12.40;99.90
20288;DHT22;10303;51.960;8.372;2023-12-29T04:42:44;12.40;99.90
20288;DHT22;10303;51.960;8.372;2023-12-29T04:45:11;12.50;99.90
20288;DHT22;10303;51.960;8.372;2023-12-29T04:47:38;12.40;99.90
20288;DHT22;10303;51.960;8.372;2023-12-29T04:50:05;12.50;99.90
20288;DHT22;10303;51.960;8.372;2023-12-29T04:52:31;12.50;99.90
20288;DHT22;10303;51.960;8.372;2023-12-29T04:54:57;12.60;99.90
20288;DHT22;10303;51.960;8.372;2023-12-29T04:57:23;12.60;99.90
20288;DHT22;10303;51.960;8.372;2023-12-29T04:59:49;12.50;99.90
20288;DHT22;10303;51.960;8.372;2023-12-29T05:02:15;12.50;99.90
20288;DHT22;10303;51.960;8.372;2023-12-29T05:04:41;12.50;99.90
20288;DHT22;10303;51.960;8.372;2023-12-29T05:07:08;12.50;99.90
20288;DHT22;10303;51.960;8.372;2023-12-29T05:09:35;12.50;99.90
20288;DHT22;10303;51.960;8.372;2023-12-29T05:12:01;12.50;99.90
20288;DHT22;10303;51.960;8.372;2023-12-29T05:14:27;12.60;99.90
20288;DHT22;10303;51.960;8.372;2023-12-29T05:16:53;12.60;99.90
20288;DHT22;10303;51.960;8.372;2023-12-29T05:19:19;12.60;99.90
20288;DHT22;10303;51.960;8.372;2023-12-29T05:21:45;12.60;99.90
20288;DHT22;10303;51.960;8.372;2023-12-29T05:24:11;12.50;99.90
20288;DHT22;10303;51.960;8.372;2023-12-29T05:26:37;12.50;99.90
20288;DHT22;10303;51.960;8.372;2023-12-29T05:29:03;12.60;99.90
20288;DHT22;10303;51.960;8.372;2023-12-29T05:31:29;12.60;99.90
20288;DHT22;10303;51.960;8.372;2023-12-29T05:33:56;12.30;99.90
20288;DHT22;10303;51.960;8.372;2023-12-29T05:36:22;12.30;99.90
20288;DHT22;10303;51.960;8.372;2023-12-29T05:38:48;12.50;99.90
20288;DHT22;10303;51.960;8.372;2023-12-29T05:41:14;12.40;99.90
20288;DHT22;10303;51.960;8.372;2023-12-29T05:43:40;12.60;99.90
20288;DHT22;10303;51.960;8.372;2023-12-29T05:46:10;12.70;99.90
20288;DHT22;10303;51.960;8.372;2023-12-29T05:48:40;12.80;99.90
20288;DHT22;10303;51.960;8.372;2023-12-29T05:51:08;12.70;99.90
20288;DHT22;10303;51.960;8.372;2023-12-29T05:53:35;12.60;99.90
20288;DHT22;10303;51.960;8.372;2023-12-29T05:56:01;12.60;99.90
20288;DHT22;10303;51.960;8.372;2023-12-29T05:58:27;12.70;99.90
20288;DHT22;10303;51.960;8.372;2023-12-29T06:00:54;12.50;99.90
20288;DHT22;10303;51.960;8.372;2023-12-29T06:03:21;12.50;99.90
20288;DHT22;10303;51.960;8.372;2023-12-29T06:05:47;12.60;99.90
20288;DHT22;10303;51.960;8.372;2023-12-29T06:08:14;12.60;99.90
20288;DHT22;10303;51.960;8.372;2023-12-29T06:10:40;12.80;99.90
20288;DHT22;10303;51.960;8.372;2023-12-29T06:13:06;12.70;99.90
20288;DHT22;10303;51.960;8.372;2023-12-29T06:15:32;12.70;99.90
20288;DHT22;10303;51.960;8.372;2023-12-29T06:17:58;12.80;99.90
20288;DHT22;10303;51.960;8.372;2023-12-29T06:20:24;12.70;99.90
20288;DHT22;10303;51.960;8.372;2023-12-29T06:22:50;12.60;99.90
20288;DHT22;10303;51.960;8.372;2023-12-29T06:25:17;12.60;99.90
20288;DHT22;10303;51.960;8.372;2023-12-29T06:27:43;12.80;99.90
20288;DHT22;10303;51.960;8.372;2023-12-29T06:30:10;12.90;99.90
20288;DHT22;10303;51.960;8.372;2023-12-29T06:32:39;12.70;99.90
20288;DHT22;10303;51.960;8.372;2023-12-29T06:35:05;12.80;99.90
20288;DHT22;10303;51.960;8.372;2023-12-29T06:37:32;12.90;99.90
20288;DHT22;10303;51.960;8.372;2023-12-29T06:39:58;12.70;99.90
20288;DHT22;10303;51.960;8.372;2023-12-29T06:42:25;12.40;99.90
20288;DHT22;10303;51.960;8.372;2023-12-29T06:44:51;12.50;99.90
20288;DHT22;10303;51.960;8.372;2023-12-29T06:47:17;12.60;99.90
20288;DHT22;10303;51.960;8.372;2023-12-29T06:49:42;12.60;99.90
20288;DHT22;10303;51.960;8.372;2023-12-29T06:52:08;12.80;99.90
20288;DHT22;10303;51.960;8.372;2023-12-29T06:54:34;12.80;99.90
20288;DHT22;10303;51.960;8.372;2023-12-29T06:57:01;12.80;99.90
20288;DHT22;10303;51.960;8.372;2023-12-29T06:59:26;12.80;99.90
20288;DHT22;10303;51.960;8.372;2023-12-29T07:01:52;12.70;99.90
20288;DHT22;10303;51.960;8.372;2023-12-29T07:04:18;12.80;99.90
20288;DHT22;10303;51.960;8.372;2023-12-29T07:06:44;12.80;99.90
20288;DHT22;10303;51.960;8.372;2023-12-29T07:09:10;12.60;99.90
20288;DHT22;10303;51.960;8.372;2023-12-29T07:11:36;12.70;99.90
20288;DHT22;10303;51.960;8.372;2023-12-29T07:14:02;12.50;99.90
20288;DHT22;10303;51.960;8.372;2023-12-29T07:16:28;12.60;99.90
20288;DHT22;10303;51.960;8.372;2023-12-29T07:18:54;12.70;99.90
20288;DHT22;10303;51.960;8.372;2023-12-29T07:21:20;12.70;99.90
20288;DHT22;10303;51.960;8.372;2023-12-29T07:23:46;12.80;99.90
20288;DHT22;10303;51.960;8.372;2023-12-29T07:26:12;12.70;99.90
20288;DHT22;10303;51.960;8.372;2023-12-29T07:28:38;12.80;99.90
20288;DHT22;10303;51.960;8.372;2023-12-29T07:31:04;12.80;99.90
20288;DHT22;10303;51.960;8.372;2023-12-29T07:33:30;12.80;99.90
20288;DHT22;10303;51.960;8.372;2023-12-29T07:35:56;12.80;99.90
20288;DHT22;10303;51.960;8.372;2023-12-29T07:38:24;12.70;99.90
20288;DHT22;10303;51.960;8.372;2023-12-29T07:40:50;12.70;99.90
20288;DHT22;10303;51.960;8.372;2023-12-29T07:43:16;12.80;99.90
20288;DHT22;10303;51.960;8.372;2023-12-29T07:45:42;12.80;99.90
20288;DHT22;10303;51.960;8.372;2023-12-29T07:48:09;12.90;99.90
20288;DHT22;10303;51.960;8.372;2023-12-29T07:50:35;13.00;99.90
20288;DHT22;10303;51.960;8.372;2023-12-29T07:53:01;13.10;99.90
20288;DHT22;10303;51.960;8.372;2023-12-29T07:55:30;13.10;99.90
20288;DHT22;10303;51.960;8.372;2023-12-29T07:57:56;13.00;99.90
20288;DHT22;10303;51.960;8.372;2023-12-29T08:00:22;12.80;99.90
20288;DHT22;10303;51.960;8.372;2023-12-29T08:02:49;12.90;99.90
20288;DHT22;10303;51.960;8.372;2023-12-29T08:05:15;12.90;99.90
20288;DHT22;10303;51.960;8.372;2023-12-29T08:07:42;13.00;99.90
20288;DHT22;10303;51.960;8.372;2023-12-29T08:10:09;12.90;99.90
20288;DHT22;10303;51.960;8.372;2023-12-29T08:12:35;13.00;99.90
20288;DHT22;10303;51.960;8.372;2023-12-29T08:15:01;12.90;99.90
20288;DHT22;10303;51.960;8.372;2023-12-29T08:17:28;13.10;99.90
20288;DHT22;10303;51.960;8.372;2023-12-29T08:19:54;13.10;99.90
20288;DHT22;10303;51.960;8.372;2023-12-29T08:22:21;13.20;99.90
20288;DHT22;10303;51.960;8.372;2023-12-29T08:24:47;13.20;99.90
20288;DHT22;10303;51.960;8.372;2023-12-29T08:27:13;13.00;99.90
20288;DHT22;10303;51.960;8.372;2023-12-29T08:29:40;13.10;99.90
20288;DHT22;10303;51.960;8.372;2023-12-29T08:32:07;13.20;99.90
20288;DHT22;10303;51.960;8.372;2023-12-29T08:34:33;13.20;99.90
20288;DHT22;10303;51.960;8.372;2023-12-29T08:37:00;13.10;99.90
20288;DHT22;10303;51.960;8.372;2023-12-29T08:39:26;13.20;99.90
20288;DHT22;10303;51.960;8.372;2023-12-29T08:41:52;13.20;99.90
20288;DHT22;10303;51.960;8.372;2023-12-29T08:44:18;13.10;99.90
20288;DHT22;10303;51.960;8.372;2023-12-29T08:46:44;13.10;99.90
20288;DHT22;10303;51.960;8.372;2023-12-29T08:49:10;13.10;99.90
20288;DHT22;10303;51.960;8.372;2023-12-29T08:51:36;13.10;99.90
20288;DHT22;10303;51.960;8.372;2023-12-29T08:54:02;13.10;99.90
20288;DHT22;10303;51.960;8.372;2023-12-29T08:56:28;13.00;99.90
20288;DHT22;10303;51.960;8.372;2023-12-29T08:58:54;13.00;99.90
20288;DHT22;10303;51.960;8.372;2023-12-29T09:01:20;13.00;99.90
20288;DHT22;10303;51.960;8.372;2023-12-29T09:03:46;13.10;99.90
20288;DHT22;10303;51.960;8.372;2023-12-29T09:06:12;13.00;99.90
20288;DHT22;10303;51.960;8.372;2023-12-29T09:08:39;13.00;99.90
20288;DHT22;10303;51.960;8.372;2023-12-29T09:11:05;13.00;99.90
20288;DHT22;10303;51.960;8.372;2023-12-29T09:13:31;13.00;99.90
20288;DHT22;10303;51.960;8.372;2023-12-29T09:15:59;12.90;99.90
20288;DHT22;10303;51.960;8.372;2023-12-29T09:18:25;12.90;99.90
20288;DHT22;10303;51.960;8.372;2023-12-29T09:20:51;13.00;99.90
20288;DHT22;10303;51.960;8.372;2023-12-29T09:23:17;12.90;99.90
20288;DHT22;10303;51.960;8.372;2023-12-29T09:25:44;12.90;99.90
20288;DHT22;10303;51.960;8.372;2023-12-29T09:28:09;12.90;99.90
20288;DHT22;10303;51.960;8.372;2023-12-29T09:30:35;12.80;99.90
20288;DHT22;10303;51.960;8.372;2023-12-29T09:33:02;12.60;99.90
20288;DHT22;10303;51.960;8.372;2023-12-29T09:35:28;12.60;99.90
20288;DHT22;10303;51.960;8.372;2023-12-29T09:37:54;12.60;99.90
20288;DHT22;10303;51.960;8.372;2023-12-29T09:40:21;12.50;99.90
20288;DHT22;10303;51.960;8.372;2023-12-29T09:42:48;12.50;99.90
20288;DHT22;10303;51.960;8.372;2023-12-29T09:45:22;12.40;99.90
20288;DHT22;10303;51.960;8.372;2023-12-29T09:47:51;12.40;99.90
20288;DHT22;10303;51.960;8.372;2023-12-29T09:50:19;12.40;99.90
20288;DHT22;10303;51.960;8.372;2023-12-29T09:52:48;12.40;99.90
20288;DHT22;10303;51.960;8.372;2023-12-29T09:55:18;12.50;99.90
20288;DHT22;10303;51.960;8.372;2023-12-29T09:57:47;12.50;99.90
20288;DHT22;10303;51.960;8.372;2023-12-29T10:00:16;12.60;99.90
20288;DHT22;10303;51.960;8.372;2023-12-29T10:02:44;12.70;99.90
20288;DHT22;10303;51.960;8.372;2023-12-29T10:05:10;12.70;99.90
20288;DHT22;10303;51.960;8.372;2023-12-29T10:07:37;12.70;99.90
20288;DHT22;10303;51.960;8.372;2023-12-29T10:10:05;12.60;99.90
20288;DHT22;10303;51.960;8.372;2023-12-29T10:12:32;12.60;99.90
20288;DHT22;10303;51.960;8.372;2023-12-29T10:23:11;12.50;99.90
20288;DHT22;10303;51.960;8.372;2023-12-29T10:25:42;12.60;99.90
20288;DHT22;10303;51.960;8.372;2023-12-29T10:28:12;12.60;99.90
20288;DHT22;10303;51.960;8.372;2023-12-29T10:30:39;12.60;99.90
20288;DHT22;10303;51.960;8.372;2023-12-29T10:33:05;12.50;99.90
20288;DHT22;10303;51.960;8.372;2023-12-29T10:35:32;12.60;99.90
20288;DHT22;10303;51.960;8.372;2023-12-29T10:38:11;12.60;99.90
20288;DHT22;10303;51.960;8.372;2023-12-29T10:40:41;12.60;99.90
20288;DHT22;10303;51.960;8.372;2023-12-29T10:43:08;12.60;99.90
20288;DHT22;10303;51.960;8.372;2023-12-29T10:45:34;12.50;99.90
20288;DHT22;10303;51.960;8.372;2023-12-29T10:48:02;12.70;99.90
20288;DHT22;10303;51.960;8.372;2023-12-29T10:50:28;12.80;99.90
20288;DHT22;10303;51.960;8.372;2023-12-29T10:53:16;12.80;99.90
20288;DHT22;10303;51.960;8.372;2023-12-29T10:55:43;12.90;99.90
20288;DHT22;10303;51.960;8.372;2023-12-29T10:58:08;12.80;99.90
20288;DHT22;10303;51.960;8.372;2023-12-29T11:00:34;12.80;99.90
20288;DHT22;10303;51.960;8.372;2023-12-29T11:03:01;12.80;99.90
20288;DHT22;10303;51.960;8.372;2023-12-29T11:05:27;12.80;99.90
20288;DHT22;10303;51.960;8.372;2023-12-29T11:07:54;13.00;99.90
20288;DHT22;10303;51.960;8.372;2023-12-29T11:10:22;13.00;99.90
20288;DHT22;10303;51.960;8.372;2023-12-29T11:12:49;12.90;99.90
20288;DHT22;10303;51.960;8.372;2023-12-29T11:15:16;13.00;99.90
20288;DHT22;10303;51.960;8.372;2023-12-29T11:17:43;13.10;99.90
20288;DHT22;10303;51.960;8.372;2023-12-29T11:20:16;13.20;99.90
20288;DHT22;10303;51.960;8.372;2023-12-29T11:22:43;13.00;99.90
20288;DHT22;10303;51.960;8.372;2023-12-29T11:25:12;12.80;99.90
20288;DHT22;10303;51.960;8.372;2023-12-29T11:27:38;13.00;99.90
20288;DHT22;10303;51.960;8.372;2023-12-29T11:30:05;13.00;99.90
20288;DHT22;10303;51.960;8.372;2023-12-29T11:38:48;12.90;99.90
20288;DHT22;10303;51.960;8.372;2023-12-29T11:44:10;12.90;99.90
20288;DHT22;10303;51.960;8.372;2023-12-29T11:46:41;12.70;99.90
20288;DHT22;10303;51.960;8.372;2023-12-29T11:49:09;12.90;99.90
20288;DHT22;10303;51.960;8.372;2023-12-29T11:51:40;12.90;99.90
20288;DHT22;10303;51.960;8.372;2023-12-29T11:54:09;13.00;99.90
20288;DHT22;10303;51.960;8.372;2023-12-29T11:56:40;12.80;99.90
20288;DHT22;10303;51.960;8.372;2023-12-29T12:01:43;12.90;99.90
20288;DHT22;10303;51.960;8.372;2023-12-29T12:09:50;12.70;99.90
20288;DHT22;10303;51.960;8.372;2023-12-29T12:12:40;12.50;99.90
20288;DHT22;10303;51.960;8.372;2023-12-29T12:17:52;12.80;99.90
20288;DHT22;10303;51.960;8.372;2023-12-29T12:20:19;12.80;99.90
20288;DHT22;10303;51.960;8.372;2023-12-29T12:22:48;12.90;99.90
20288;DHT22;10303;51.960;8.372;2023-12-29T12:25:19;12.90;99.90
20288;DHT22;10303;51.960;8.372;2023-12-29T12:27:46;13.00;99.90
20288;DHT22;10303;51.960;8.372;2023-12-29T12:30:18;13.00;99.90
20288;DHT22;10303;51.960;8.372;2023-12-29T12:32:45;13.00;99.90
20288;DHT22;10303;51.960;8.372;2023-12-29T12:35:16;13.10;99.90
20288;DHT22;10303;51.960;8.372;2023-12-29T12:37:42;13.00;99.90
20288;DHT22;10303;51.960;8.372;2023-12-29T12:40:08;12.90;99.90
20288;DHT22;10303;51.960;8.372;2023-12-29T12:42:39;12.70;99.90
20288;DHT22;10303;51.960;8.372;2023-12-29T12:45:19;12.70;99.90
20288;DHT22;10303;51.960;8.372;2023-12-29T12:47:59;12.80;99.90
20288;DHT22;10303;51.960;8.372;2023-12-29T12:50:28;12.70;99.90
20288;DHT22;10303;51.960;8.372;2023-12-29T12:52:56;12.70;99.90
20288;DHT22;10303;51.960;8.372;2023-12-29T12:55:24;12.60;99.90
20288;DHT22;10303;51.960;8.372;2023-12-29T12:57:50;12.70;99.90
20288;DHT22;10303;51.960;8.372;2023-12-29T13:00:16;12.90;99.90
20288;DHT22;10303;51.960;8.372;2023-12-29T13:02:45;12.80;99.90
20288;DHT22;10303;51.960;8.372;2023-12-29T13:05:12;12.80;99.90
20288;DHT22;10303;51.960;8.372;2023-12-29T13:07:38;12.70;99.90
20288;DHT22;10303;51.960;8.372;2023-12-29T13:10:05;12.90;99.90
20288;DHT22;10303;51.960;8.372;2023-12-29T13:12:31;12.90;99.90
20288;DHT22;10303;51.960;8.372;2023-12-29T13:15:09;12.90;99.90
20288;DHT22;10303;51.960;8.372;2023-12-29T13:17:36;13.10;99.90
20288;DHT22;10303;51.960;8.372;2023-12-29T13:20:02;13.00;99.90
20288;DHT22;10303;51.960;8.372;2023-12-29T13:22:30;13.10;99.90
20288;DHT22;10303;51.960;8.372;2023-12-29T13:24:56;13.30;99.90
20288;DHT22;10303;51.960;8.372;2023-12-29T13:27:22;13.40;99.90
20288;DHT22;10303;51.960;8.372;2023-12-29T13:29:48;13.40;99.90
20288;DHT22;10303;51.960;8.372;2023-12-29T13:32:21;13.10;99.90
20288;DHT22;10303;51.960;8.372;2023-12-29T13:40:54;12.80;99.90
20288;DHT22;10303;51.960;8.372;2023-12-29T13:43:21;12.90;99.90
20288;DHT22;10303;51.960;8.372;2023-12-29T13:45:48;13.10;99.90
20288;DHT22;10303;51.960;8.372;2023-12-29T13:48:16;13.20;99.90
20288;DHT22;10303;51.960;8.372;2023-12-29T13:50:48;12.60;99.90
20288;DHT22;10303;51.960;8.372;2023-12-29T13:53:18;12.70;99.90
20288;DHT22;10303;51.960;8.372;2023-12-29T13:55:45;13.00;99.90
20288;DHT22;10303;51.960;8.372;2023-12-29T13:58:11;12.90;99.90
20288;DHT22;10303;51.960;8.372;2023-12-29T14:00:40;12.80;99.90
20288;DHT22;10303;51.960;8.372;2023-12-29T14:03:11;12.80;99.90
20288;DHT22;10303;51.960;8.372;2023-12-29T14:05:55;12.90;99.90
20288;DHT22;10303;51.960;8.372;2023-12-29T14:08:33;13.10;99.90
20288;DHT22;10303;51.960;8.372;2023-12-29T14:11:08;13.20;99.90
20288;DHT22;10303;51.960;8.372;2023-12-29T14:13:35;13.30;99.90
20288;DHT22;10303;51.960;8.372;2023-12-29T14:16:01;13.30;99.90
20288;DHT22;10303;51.960;8.372;2023-12-29T14:18:52;13.30;99.90
20288;DHT22;10303;51.960;8.372;2023-12-29T14:21:21;13.40;99.90
20288;DHT22;10303;51.960;8.372;2023-12-29T14:26:34;13.50;99.90
20288;DHT22;10303;51.960;8.372;2023-12-29T14:29:07;13.50;99.90
20288;DHT22;10303;51.960;8.372;2023-12-29T14:31:42;13.40;99.90
20288;DHT22;10303;51.960;8.372;2023-12-29T14:34:10;13.50;99.90
20288;DHT22;10303;51.960;8.372;2023-12-29T14:36:39;13.50;99.90
20288;DHT22;10303;51.960;8.372;2023-12-29T14:39:09;13.50;99.90
20288;DHT22;10303;51.960;8.372;2023-12-29T14:41:36;13.40;99.90
20288;DHT22;10303;51.960;8.372;2023-12-29T14:44:03;13.30;99.90
20288;DHT22;10303;51.960;8.372;2023-12-29T14:46:31;13.30;99.90
20288;DHT22;10303;51.960;8.372;2023-12-29T14:49:03;13.30;99.90
20288;DHT22;10303;51.960;8.372;2023-12-29T14:51:31;13.40;99.90
20288;DHT22;10303;51.960;8.372;2023-12-29T14:53:58;13.30;99.90
20288;DHT22;10303;51.960;8.372;2023-12-29T14:56:24;13.40;99.90
20288;DHT22;10303;51.960;8.372;2023-12-29T14:58:51;13.30;99.90
20288;DHT22;10303;51.960;8.372;2023-12-29T15:01:17;13.30;99.90
20288;DHT22;10303;51.960;8.372;2023-12-29T15:03:44;13.20;99.90
20288;DHT22;10303;51.960;8.372;2023-12-29T15:06:12;13.10;99.90
20288;DHT22;10303;51.960;8.372;2023-12-29T15:08:38;13.20;99.90
20288;DHT22;10303;51.960;8.372;2023-12-29T15:11:05;13.20;99.90
20288;DHT22;10303;51.960;8.372;2023-12-29T15:13:34;13.30;99.90
20288;DHT22;10303;51.960;8.372;2023-12-29T15:16:02;13.30;99.90
20288;DHT22;10303;51.960;8.372;2023-12-29T15:18:30;13.30;99.90
20288;DHT22;10303;51.960;8.372;2023-12-29T15:20:59;13.30;99.90
20288;DHT22;10303;51.960;8.372;2023-12-29T15:23:28;13.20;99.90
20288;DHT22;10303;51.960;8.372;2023-12-29T15:25:55;13.20;99.90
20288;DHT22;10303;51.960;8.372;2023-12-29T15:28:23;13.20;99.90
20288;DHT22;10303;51.960;8.372;2023-12-29T15:30:54;13.20;99.90
20288;DHT22;10303;51.960;8.372;2023-12-29T15:33:22;13.10;99.90
20288;DHT22;10303;51.960;8.372;2023-12-29T15:35:49;13.10;99.90
20288;DHT22;10303;51.960;8.372;2023-12-29T15:38:16;13.20;99.90
20288;DHT22;10303;51.960;8.372;2023-12-29T15:40:50;13.00;99.90
20288;DHT22;10303;51.960;8.372;2023-12-29T15:43:16;13.10;99.90
20288;DHT22;10303;51.960;8.372;2023-12-29T15:45:42;13.10;99.90
20288;DHT22;10303;51.960;8.372;2023-12-29T15:48:09;13.00;99.90
20288;DHT22;10303;51.960;8.372;2023-12-29T15:50:35;12.90;99.90
20288;DHT22;10303;51.960;8.372;2023-12-29T15:53:02;12.90;99.90
20288;DHT22;10303;51.960;8.372;2023-12-29T15:55:29;12.80;99.90
20288;DHT22;10303;51.960;8.372;2023-12-29T15:57:56;12.80;99.90
20288;DHT22;10303;51.960;8.372;2023-12-29T16:00:23;12.70;99.90
20288;DHT22;10303;51.960;8.372;2023-12-29T16:02:50;12.50;99.90
20288;DHT22;10303;51.960;8.372;2023-12-29T16:05:18;12.30;99.90
20288;DHT22;10303;51.960;8.372;2023-12-29T16:07:45;12.10;99.90
20288;DHT22;10303;51.960;8.372;2023-12-29T16:10:11;11.90;99.90
20288;DHT22;10303;51.960;8.372;2023-12-29T16:12:37;11.70;99.90
20288;DHT22;10303;51.960;8.372;2023-12-29T16:15:04;11.60;99.90